createdAt,value
2018-08-25T00:00:28.690Z,77.20
2018-08-25T00:02:57.243Z,78.00
2018-08-25T00:05:25.809Z,76.10
2018-08-25T00:07:54.365Z,79.30
2018-08-25T00:10:22.904Z,80.80
2018-08-25T00:12:51.426Z,81.80
2018-08-25T00:15:20.023Z,82.90
2018-08-25T00:17:48.564Z,86.20
2018-08-25T00:20:17.125Z,89.20
2018-08-25T00:22:45.688Z,90.30
2018-08-25T00:25:14.247Z,91.50
2018-08-25T00:27:42.790Z,93.10
2018-08-25T00:30:16.727Z,94.00
2018-08-25T00:32:45.339Z,94.10
2018-08-25T00:35:13.900Z,94.60
2018-08-25T00:37:42.491Z,94.40
2018-08-25T00:40:11.118Z,94.60
2018-08-25T00:42:39.650Z,94.10
2018-08-25T00:45:08.293Z,94.20
2018-08-25T00:47:36.867Z,94.30
2018-08-25T00:50:05.553Z,94.40
2018-08-25T00:52:34.131Z,94.60
2018-08-25T00:55:02.677Z,94.70
2018-08-25T00:57:31.257Z,94.90
2018-08-25T00:59:59.834Z,95.40
2018-08-25T01:02:28.427Z,96.00
2018-08-25T01:04:56.986Z,96.20
2018-08-25T01:10:08.451Z,96.20
2018-08-25T01:12:37.110Z,96.70
2018-08-25T01:15:06.116Z,97.60
2018-08-25T01:17:34.675Z,98.30
2018-08-25T01:20:03.328Z,98.50
2018-08-25T01:22:31.863Z,98.60
2018-08-25T01:25:00.425Z,98.90
2018-08-25T01:27:28.964Z,99.50
2018-08-25T01:29:57.524Z,99.50
2018-08-25T01:32:26.100Z,99.50
2018-08-25T01:34:54.690Z,99.40
2018-08-25T01:37:23.228Z,99.20
2018-08-25T01:39:51.766Z,99.50
2018-08-25T01:42:20.329Z,99.50
2018-08-25T01:44:48.896Z,99.80
2018-08-25T01:47:17.462Z,99.90
2018-08-25T01:49:46.027Z,99.90
2018-08-25T01:52:14.568Z,99.90
2018-08-25T01:54:43.127Z,99.90
2018-08-25T01:57:11.728Z,99.90
2018-08-25T01:59:40.355Z,99.90
2018-08-25T02:02:08.894Z,99.90
2018-08-25T02:04:37.477Z,99.90
2018-08-25T02:07:06.031Z,99.90
2018-08-25T02:09:34.598Z,99.90
2018-08-25T02:12:03.170Z,99.90
2018-08-25T02:14:31.773Z,99.90
2018-08-25T02:17:00.337Z,99.90
2018-08-25T02:19:28.917Z,99.90
2018-08-25T02:21:57.534Z,99.90
2018-08-25T02:24:26.155Z,99.90
2018-08-25T02:26:55.175Z,99.90
2018-08-25T02:29:23.765Z,99.90
2018-08-25T02:31:52.363Z,99.90
2018-08-25T02:34:21.158Z,99.90
2018-08-25T02:36:49.679Z,99.90
2018-08-25T02:39:18.313Z,99.90
2018-08-25T02:41:46.863Z,99.90
2018-08-25T02:44:15.425Z,99.90
2018-08-25T02:46:43.997Z,99.90
2018-08-25T02:49:12.581Z,99.90
2018-08-25T02:51:41.161Z,99.90
2018-08-25T02:54:09.703Z,99.90
2018-08-25T02:56:38.201Z,99.90
2018-08-25T02:59:06.802Z,99.90
2018-08-25T03:01:35.399Z,99.90
2018-08-25T03:04:03.969Z,99.90
2018-08-25T03:06:32.562Z,99.90
2018-08-25T03:09:01.099Z,99.90
2018-08-25T03:11:29.682Z,99.90
2018-08-25T03:13:58.261Z,99.90
2018-08-25T03:16:26.840Z,99.30
2018-08-25T03:18:55.426Z,99.50
2018-08-25T03:21:23.985Z,99.00
2018-08-25T03:23:52.870Z,99.00
2018-08-25T03:26:21.404Z,99.30
2018-08-25T03:28:49.993Z,99.90
2018-08-25T03:31:18.558Z,99.70
2018-08-25T03:33:47.125Z,99.60
2018-08-25T03:36:15.713Z,99.70
2018-08-25T03:38:44.246Z,99.20
2018-08-25T03:41:12.830Z,98.90
2018-08-25T03:43:41.359Z,98.50
2018-08-25T03:46:09.889Z,98.40
2018-08-25T03:48:38.475Z,98.20
2018-08-25T03:51:07.008Z,98.20
2018-08-25T03:53:35.510Z,98.50
2018-08-25T03:56:04.088Z,98.60
2018-08-25T03:58:32.650Z,98.80
2018-08-25T04:01:01.168Z,98.60
2018-08-25T04:03:29.769Z,98.60
2018-08-25T04:05:58.329Z,98.80
2018-08-25T04:08:26.892Z,98.40
2018-08-25T04:10:55.473Z,98.30
2018-08-25T04:13:24.015Z,98.30
2018-08-25T04:15:52.585Z,98.10
2018-08-25T04:18:21.158Z,98.00
2018-08-25T04:20:49.699Z,97.80
2018-08-25T04:23:18.266Z,97.90
2018-08-25T04:25:46.841Z,97.60
2018-08-25T04:28:15.410Z,97.50
2018-08-25T04:30:44.176Z,97.90
2018-08-25T04:33:12.750Z,96.60
2018-08-25T04:35:41.296Z,96.00
2018-08-25T04:38:09.819Z,95.60
2018-08-25T04:40:38.837Z,95.50
2018-08-25T04:43:07.377Z,95.50
2018-08-25T04:45:35.942Z,95.40
2018-08-25T04:48:04.830Z,95.20
2018-08-25T04:50:33.370Z,95.20
2018-08-25T04:53:01.925Z,95.10
2018-08-25T04:55:30.538Z,95.00
2018-08-25T04:57:59.095Z,94.90
2018-08-25T05:00:27.629Z,95.00
2018-08-25T05:02:56.227Z,94.60
2018-08-25T05:05:24.750Z,94.20
2018-08-25T05:07:53.354Z,93.90
2018-08-25T05:10:22.005Z,93.80
2018-08-25T05:12:50.571Z,93.60
2018-08-25T05:15:19.138Z,93.00
2018-08-25T05:17:47.736Z,93.20
2018-08-25T05:20:16.336Z,92.00
2018-08-25T05:22:44.930Z,91.10
2018-08-25T05:25:13.470Z,90.80
2018-08-25T05:27:42.008Z,91.50
2018-08-25T05:30:10.606Z,90.90
2018-08-25T05:32:39.173Z,90.40
2018-08-25T05:35:07.773Z,90.60
2018-08-25T05:37:36.342Z,91.20
2018-08-25T05:40:04.989Z,91.50
2018-08-25T05:42:33.560Z,91.80
2018-08-25T05:45:02.168Z,91.60
2018-08-25T05:47:30.742Z,91.20
2018-08-25T05:49:59.287Z,90.10
2018-08-25T05:52:27.837Z,89.70
2018-08-25T05:54:56.418Z,89.90
2018-08-25T05:57:24.977Z,89.20
2018-08-25T05:59:53.556Z,87.90
2018-08-25T06:02:22.134Z,86.70
2018-08-25T06:04:50.686Z,86.50
2018-08-25T06:07:19.257Z,85.60
2018-08-25T06:09:47.847Z,85.10
2018-08-25T06:12:16.418Z,84.80
2018-08-25T06:14:44.974Z,83.50
2018-08-25T06:17:13.596Z,82.50
2018-08-25T06:19:42.150Z,80.80
2018-08-25T06:22:10.755Z,79.60
2018-08-25T06:24:39.314Z,78.60
2018-08-25T06:27:07.890Z,77.70
2018-08-25T06:29:36.494Z,75.50
2018-08-25T06:32:05.154Z,74.90
2018-08-25T06:34:33.689Z,73.10
2018-08-25T06:37:02.224Z,73.10
2018-08-25T06:39:30.775Z,72.40
2018-08-25T06:41:59.358Z,72.00
2018-08-25T06:44:27.882Z,72.70
2018-08-25T06:46:56.479Z,71.90
2018-08-25T06:49:25.174Z,72.00
2018-08-25T06:51:53.929Z,71.90
2018-08-25T06:54:22.504Z,70.90
2018-08-25T06:56:51.070Z,70.90
2018-08-25T06:59:19.668Z,70.20
2018-08-25T07:01:48.367Z,70.20
2018-08-25T07:04:16.932Z,70.20
2018-08-25T07:06:45.459Z,69.80
2018-08-25T07:09:14.045Z,69.70
2018-08-25T07:11:42.988Z,69.10
2018-08-25T07:14:12.015Z,69.80
2018-08-25T07:16:41.007Z,69.70
2018-08-25T07:19:09.640Z,69.10
2018-08-25T07:21:38.135Z,68.70
2018-08-25T07:24:06.970Z,69.60
2018-08-25T07:26:35.538Z,70.50
2018-08-25T07:29:04.102Z,68.40
2018-08-25T07:31:32.673Z,68.70
2018-08-25T07:34:01.488Z,68.80
2018-08-25T07:36:30.104Z,67.40
2018-08-25T07:38:58.693Z,67.80
2018-08-25T07:41:27.226Z,67.30
2018-08-25T07:43:55.816Z,67.80
2018-08-25T07:46:24.394Z,67.70
2018-08-25T07:48:52.961Z,67.80
2018-08-25T07:51:21.527Z,65.60
2018-08-25T07:53:50.195Z,66.90
2018-08-25T07:56:18.828Z,68.10
2018-08-25T07:58:47.345Z,68.40
2018-08-25T08:01:15.916Z,68.90
2018-08-25T08:03:44.499Z,69.10
2018-08-25T08:06:13.566Z,69.10
2018-08-25T08:08:42.107Z,69.00
2018-08-25T08:11:10.706Z,70.20
2018-08-25T08:13:39.250Z,69.40
2018-08-25T08:16:07.995Z,69.60
2018-08-25T08:18:36.917Z,71.50
2018-08-25T08:21:05.606Z,70.10
2018-08-25T08:23:34.165Z,71.00
2018-08-25T08:26:02.703Z,70.20
2018-08-25T08:28:31.237Z,70.60
2018-08-25T08:30:59.788Z,71.60
2018-08-25T08:33:28.339Z,70.90
2018-08-25T08:35:56.922Z,70.60
2018-08-25T08:38:25.564Z,71.80
2018-08-25T08:40:54.095Z,71.50
2018-08-25T08:43:22.628Z,71.20
2018-08-25T08:45:51.221Z,71.00
2018-08-25T08:48:19.802Z,70.30
2018-08-25T08:50:48.335Z,70.00
2018-08-25T08:53:16.922Z,68.80
2018-08-25T08:55:45.467Z,71.10
2018-08-25T08:58:14.021Z,69.10
2018-08-25T09:00:42.651Z,68.70
2018-08-25T09:03:11.228Z,70.10
2018-08-25T09:05:39.742Z,65.90
2018-08-25T09:08:08.341Z,65.90
2018-08-25T09:10:36.972Z,64.70
2018-08-25T09:13:05.544Z,64.40
2018-08-25T09:15:34.269Z,61.90
2018-08-25T09:18:02.822Z,61.90
2018-08-25T09:20:31.392Z,61.40
2018-08-25T09:23:00.069Z,60.50
2018-08-25T09:25:28.638Z,60.10
2018-08-25T09:27:57.178Z,59.70
2018-08-25T09:30:25.741Z,58.70
2018-08-25T09:32:54.310Z,59.00
2018-08-25T09:35:22.887Z,61.20
2018-08-25T09:37:51.491Z,59.00
2018-08-25T09:40:20.028Z,60.70
2018-08-25T09:42:49.428Z,58.40
2018-08-25T09:45:18.015Z,56.80
2018-08-25T09:47:46.533Z,56.00
2018-08-25T09:50:15.148Z,57.50
2018-08-25T09:52:43.721Z,56.00
2018-08-25T09:55:12.278Z,57.80
2018-08-25T09:57:40.975Z,55.80
2018-08-25T10:00:10.621Z,56.90
2018-08-25T10:02:39.192Z,56.80
2018-08-25T10:05:08.403Z,58.00
2018-08-25T10:07:36.949Z,59.70
2018-08-25T10:10:06.362Z,58.40
2018-08-25T10:12:34.960Z,60.60
2018-08-25T10:15:03.559Z,62.50
2018-08-25T10:17:32.098Z,61.40
2018-08-25T10:20:00.736Z,61.50
2018-08-25T10:22:29.322Z,63.30
2018-08-25T10:24:57.959Z,62.30
2018-08-25T10:27:26.502Z,64.60
2018-08-25T10:29:55.101Z,63.50
2018-08-25T10:32:23.616Z,64.50
2018-08-25T10:34:52.128Z,63.70
2018-08-25T10:37:20.724Z,61.90
2018-08-25T10:39:49.322Z,66.40
2018-08-25T10:42:17.890Z,69.40
2018-08-25T10:44:46.503Z,68.30
2018-08-25T10:47:15.039Z,65.50
2018-08-25T10:49:43.573Z,67.80
2018-08-25T10:52:12.216Z,66.60
2018-08-25T10:54:40.760Z,68.90
2018-08-25T10:57:09.310Z,72.00
2018-08-25T10:59:37.923Z,73.10
2018-08-25T11:02:08.110Z,77.40
2018-08-25T11:04:37.682Z,77.00
2018-08-25T11:07:06.274Z,78.00
2018-08-25T11:09:34.798Z,78.80
2018-08-25T11:12:03.388Z,82.80
2018-08-25T11:14:31.951Z,82.30
2018-08-25T11:17:00.512Z,80.10
2018-08-25T11:19:29.149Z,77.30
2018-08-25T11:21:57.726Z,76.90
2018-08-25T11:24:26.264Z,77.20
2018-08-25T11:26:54.809Z,78.00
2018-08-25T11:29:23.483Z,77.40
2018-08-25T11:31:51.933Z,78.40
2018-08-25T11:34:20.518Z,76.50
2018-08-25T11:36:49.118Z,78.20
2018-08-25T11:39:17.686Z,82.20
2018-08-25T11:41:46.232Z,85.50
2018-08-25T11:44:14.790Z,88.20
2018-08-25T11:46:43.434Z,88.20
2018-08-25T11:49:12.030Z,84.80
2018-08-25T11:51:40.583Z,84.80
2018-08-25T11:54:09.194Z,85.60
2018-08-25T11:56:37.710Z,87.90
2018-08-25T11:59:06.261Z,86.10
2018-08-25T12:01:34.943Z,90.00
2018-08-25T12:04:03.657Z,90.20
2018-08-25T12:06:32.224Z,90.20
2018-08-25T12:09:00.836Z,90.90
2018-08-25T12:11:29.413Z,90.80
2018-08-25T12:13:57.958Z,90.60
2018-08-25T12:16:26.647Z,92.00
2018-08-25T12:18:55.174Z,91.80
2018-08-25T12:21:23.759Z,91.20
2018-08-25T12:23:52.397Z,89.00
2018-08-25T12:26:21.078Z,90.50
2018-08-25T12:28:49.628Z,87.60
2018-08-25T12:31:18.222Z,88.10
2018-08-25T12:33:46.808Z,83.60
2018-08-25T12:36:15.342Z,86.60
2018-08-25T12:38:43.910Z,83.00
2018-08-25T12:41:12.486Z,86.40
2018-08-25T12:43:41.054Z,86.40
2018-08-25T12:46:09.634Z,85.00
2018-08-25T12:48:38.263Z,86.40
2018-08-25T12:51:07.024Z,83.90
2018-08-25T12:53:35.546Z,85.50
2018-08-25T12:56:04.157Z,84.70
2018-08-25T12:58:32.725Z,82.00
2018-08-25T13:01:01.267Z,83.60
2018-08-25T13:03:29.952Z,77.30
2018-08-25T13:05:58.533Z,77.40
2018-08-25T13:08:27.149Z,81.10
2018-08-25T13:10:55.783Z,78.60
2018-08-25T13:13:24.361Z,77.10
2018-08-25T13:15:52.928Z,80.00
2018-08-25T13:18:21.551Z,78.90
2018-08-25T13:20:50.115Z,83.40
2018-08-25T13:23:18.687Z,82.50
2018-08-25T13:25:47.266Z,82.40
2018-08-25T13:28:15.788Z,79.40
2018-08-25T13:30:44.407Z,78.60
2018-08-25T13:33:12.960Z,77.00
2018-08-25T13:35:41.848Z,74.90
2018-08-25T13:38:10.513Z,73.70
2018-08-25T13:40:39.170Z,75.20
2018-08-25T13:43:07.743Z,72.70
2018-08-25T13:45:36.311Z,74.40
2018-08-25T13:48:04.886Z,71.60
2018-08-25T13:50:33.464Z,71.90
2018-08-25T13:53:02.079Z,69.70
2018-08-25T13:55:30.687Z,68.30
2018-08-25T13:57:59.264Z,68.70
2018-08-25T14:00:27.827Z,67.80
2018-08-25T14:02:56.642Z,70.00
2018-08-25T14:05:25.327Z,68.40
2018-08-25T14:07:53.923Z,65.80
2018-08-25T14:10:22.622Z,66.50
2018-08-25T14:12:51.176Z,67.30
2018-08-25T14:15:20.015Z,66.90
2018-08-25T14:17:48.630Z,67.60
2018-08-25T14:20:17.188Z,69.00
2018-08-25T14:22:46.522Z,67.00
2018-08-25T14:25:15.113Z,69.50
2018-08-25T14:27:43.703Z,67.70
2018-08-25T14:30:12.263Z,68.90
2018-08-25T14:32:40.867Z,72.20
2018-08-25T14:35:09.400Z,73.10
2018-08-25T14:37:37.945Z,76.30
2018-08-25T14:40:06.582Z,78.30
2018-08-25T14:42:35.114Z,80.40
2018-08-25T14:45:03.685Z,84.00
2018-08-25T14:47:32.325Z,81.40
2018-08-25T14:50:00.933Z,79.40
2018-08-25T14:52:29.522Z,78.70
2018-08-25T14:54:58.094Z,78.80
2018-08-25T14:57:26.943Z,77.00
2018-08-25T14:59:58.535Z,78.00
2018-08-25T15:02:27.086Z,77.00
2018-08-25T15:04:55.657Z,74.60
2018-08-25T15:07:24.247Z,76.30
2018-08-25T15:09:53.140Z,71.80
2018-08-25T15:12:21.675Z,74.70
2018-08-25T15:14:50.306Z,70.70
2018-08-25T15:17:18.931Z,73.00
2018-08-25T15:19:47.487Z,71.30
2018-08-25T15:22:16.109Z,69.20
2018-08-25T15:24:44.647Z,69.80
2018-08-25T15:27:13.267Z,70.10
2018-08-25T15:29:41.825Z,67.90
2018-08-25T15:32:10.350Z,64.60
2018-08-25T15:34:38.887Z,67.10
2018-08-25T15:37:07.478Z,66.30
2018-08-25T15:39:36.020Z,66.80
2018-08-25T15:42:04.553Z,65.80
2018-08-25T15:44:33.253Z,64.20
2018-08-25T15:47:01.819Z,63.20
2018-08-25T15:49:30.419Z,61.20
2018-08-25T15:51:59.116Z,65.40
2018-08-25T15:54:27.911Z,65.10
2018-08-25T15:56:56.467Z,63.20
2018-08-25T15:59:25.043Z,63.40
2018-08-25T16:01:53.607Z,64.20
2018-08-25T16:04:22.172Z,63.70
2018-08-25T16:06:50.816Z,64.50
2018-08-25T16:09:19.386Z,65.40
2018-08-25T16:11:47.971Z,66.00
2018-08-25T16:14:16.544Z,62.90
2018-08-25T16:16:45.098Z,63.20
2018-08-25T16:19:13.727Z,63.60
2018-08-25T16:21:42.263Z,65.40
2018-08-25T16:24:10.808Z,63.00
2018-08-25T16:26:39.393Z,64.70
2018-08-25T16:29:08.018Z,63.80
2018-08-25T16:31:36.598Z,62.90
2018-08-25T16:34:06.011Z,63.80
2018-08-25T16:36:34.579Z,63.30
2018-08-25T16:39:03.974Z,63.40
2018-08-25T16:41:32.554Z,64.40
2018-08-25T16:44:01.195Z,62.90
2018-08-25T16:46:29.743Z,62.60
2018-08-25T16:48:58.360Z,61.60
2018-08-25T16:51:26.908Z,63.10
2018-08-25T16:53:55.464Z,63.00
2018-08-25T16:56:24.025Z,63.60
2018-08-25T16:58:52.617Z,62.00
2018-08-25T17:01:21.178Z,60.80
2018-08-25T17:03:49.740Z,61.70
2018-08-25T17:06:18.330Z,61.70
2018-08-25T17:08:46.913Z,61.70
2018-08-25T17:11:15.454Z,61.90
2018-08-25T17:13:44.088Z,62.30
2018-08-25T17:16:12.894Z,62.10
2018-08-25T17:18:41.457Z,62.10
2018-08-25T17:21:10.178Z,61.00
2018-08-25T17:23:38.642Z,61.30
2018-08-25T17:26:07.239Z,62.80
2018-08-25T17:28:35.850Z,62.90
2018-08-25T17:31:04.430Z,62.80
2018-08-25T17:33:32.959Z,62.50
2018-08-25T17:36:01.570Z,62.50
2018-08-25T17:38:30.181Z,62.30
2018-08-25T17:40:58.750Z,62.70
2018-08-25T17:43:27.286Z,62.20
2018-08-25T17:45:55.834Z,62.50
2018-08-25T17:48:24.375Z,63.80
2018-08-25T17:50:53.080Z,64.20
2018-08-25T17:53:21.514Z,64.00
2018-08-25T17:55:50.056Z,63.70
2018-08-25T17:58:18.659Z,63.90
2018-08-25T18:00:47.466Z,63.20
2018-08-25T18:03:16.025Z,64.10
2018-08-25T18:05:44.636Z,62.80
2018-08-25T18:08:13.165Z,63.20
2018-08-25T18:10:41.736Z,64.00
2018-08-25T18:13:10.314Z,65.10
2018-08-25T18:15:38.860Z,65.30
2018-08-25T18:18:07.494Z,65.40
2018-08-25T18:20:36.052Z,66.30
2018-08-25T18:23:04.666Z,66.90
2018-08-25T18:25:33.183Z,69.00
2018-08-25T18:28:01.782Z,67.60
2018-08-25T18:30:30.352Z,70.00
2018-08-25T18:32:58.888Z,72.20
2018-08-25T18:35:27.536Z,73.70
2018-08-25T18:37:56.102Z,75.60
2018-08-25T18:40:24.662Z,75.30
2018-08-25T18:42:53.270Z,72.80
2018-08-25T18:45:22.210Z,71.80
2018-08-25T18:47:50.770Z,76.30
2018-08-25T18:50:19.411Z,78.90
2018-08-25T18:52:47.942Z,79.60
2018-08-25T18:55:16.572Z,80.50
2018-08-25T18:57:45.120Z,81.80
2018-08-25T19:00:13.747Z,82.30
2018-08-25T19:02:42.310Z,83.30
2018-08-25T19:05:10.915Z,84.60
2018-08-25T19:07:39.474Z,84.60
2018-08-25T19:10:08.080Z,85.00
2018-08-25T19:12:36.643Z,85.50
2018-08-25T19:15:05.231Z,85.80
2018-08-25T19:17:33.794Z,86.50
2018-08-25T19:20:02.404Z,86.80
2018-08-25T19:22:30.955Z,87.40
2018-08-25T19:24:59.470Z,88.80
2018-08-25T19:27:28.063Z,90.10
2018-08-25T19:29:56.701Z,90.40
2018-08-25T19:32:25.182Z,90.60
2018-08-25T19:34:53.818Z,90.60
2018-08-25T19:37:22.426Z,90.80
2018-08-25T19:39:50.989Z,91.00
2018-08-25T19:42:19.546Z,91.30
2018-08-25T19:44:48.111Z,92.00
2018-08-25T19:47:16.673Z,92.50
2018-08-25T19:49:45.253Z,92.90
2018-08-25T19:52:13.818Z,93.10
2018-08-25T19:54:42.375Z,93.50
2018-08-25T19:57:10.956Z,93.80
2018-08-25T19:59:39.545Z,94.10
2018-08-25T20:02:08.106Z,94.40
2018-08-25T20:04:36.685Z,94.50
2018-08-25T20:07:05.473Z,94.30
2018-08-25T20:09:34.172Z,94.50
2018-08-25T20:12:02.670Z,94.70
2018-08-25T20:14:31.189Z,95.00
2018-08-25T20:16:59.773Z,95.30
2018-08-25T20:19:28.346Z,95.80
2018-08-25T20:21:56.887Z,96.20
2018-08-25T20:24:28.378Z,96.30
2018-08-25T20:26:57.062Z,96.60
2018-08-25T20:29:25.575Z,96.80
2018-08-25T20:31:54.173Z,96.90
2018-08-25T20:34:22.758Z,97.20
2018-08-25T20:36:51.360Z,97.20
2018-08-25T20:39:19.896Z,97.10
2018-08-25T20:41:48.495Z,97.50
2018-08-25T20:44:17.057Z,97.60
2018-08-25T20:46:45.659Z,98.10
2018-08-25T20:49:14.247Z,98.40
2018-08-25T20:51:42.780Z,98.20
2018-08-25T20:54:11.417Z,97.60
2018-08-25T20:56:39.988Z,97.60
2018-08-25T20:59:08.547Z,98.10
2018-08-25T21:01:37.115Z,98.00
2018-08-25T21:04:05.718Z,97.60
2018-08-25T21:06:34.337Z,97.90
2018-08-25T21:09:02.937Z,97.80
2018-08-25T21:11:31.506Z,97.80
2018-08-25T21:14:00.063Z,97.40
2018-08-25T21:16:28.591Z,97.00
2018-08-25T21:18:57.185Z,97.60
2018-08-25T21:21:25.763Z,98.00
2018-08-25T21:23:54.390Z,98.60
2018-08-25T21:26:22.991Z,99.10
2018-08-25T21:28:51.551Z,99.40
2018-08-25T21:31:20.138Z,99.50
2018-08-25T21:33:48.742Z,99.20
2018-08-25T21:36:17.310Z,99.40
2018-08-25T21:38:46.572Z,99.50
2018-08-25T21:41:15.184Z,99.80
2018-08-25T21:43:43.706Z,99.90
2018-08-25T21:46:12.267Z,99.90
2018-08-25T21:48:40.864Z,99.90
2018-08-25T21:51:09.451Z,99.90
2018-08-25T21:53:37.985Z,99.90
2018-08-25T21:56:06.685Z,99.90
2018-08-25T21:58:35.370Z,99.90
2018-08-25T22:01:04.015Z,99.90
2018-08-25T22:03:32.562Z,99.90
2018-08-25T22:06:01.062Z,99.90
2018-08-25T22:08:29.610Z,99.90
2018-08-25T22:10:58.208Z,99.90
2018-08-25T22:13:26.725Z,99.90
2018-08-25T22:15:55.274Z,99.90
2018-08-25T22:18:23.890Z,99.90
2018-08-25T22:20:52.451Z,99.90
2018-08-25T22:23:21.008Z,99.90
2018-08-25T22:25:49.577Z,99.90
2018-08-25T22:28:18.130Z,99.90
2018-08-25T22:30:46.695Z,99.90
2018-08-25T22:33:15.251Z,99.90
2018-08-25T22:35:43.771Z,99.90
2018-08-25T22:38:12.340Z,99.90
2018-08-25T22:40:40.933Z,99.90
2018-08-25T22:43:09.538Z,99.90
2018-08-25T22:45:38.091Z,99.90
2018-08-25T22:48:07.242Z,99.90
2018-08-25T22:50:35.781Z,99.90
2018-08-25T22:53:04.364Z,99.90
2018-08-25T22:55:32.898Z,99.90
2018-08-25T22:58:01.601Z,99.90
2018-08-25T23:00:30.199Z,99.90
2018-08-25T23:02:58.786Z,99.90
2018-08-25T23:05:27.320Z,99.90
2018-08-25T23:07:55.908Z,99.90
2018-08-25T23:10:24.443Z,99.90
2018-08-25T23:12:53.004Z,99.90
2018-08-25T23:15:21.595Z,99.90
2018-08-25T23:17:50.244Z,99.90
2018-08-25T23:20:18.766Z,99.90
2018-08-25T23:22:47.306Z,99.90
2018-08-25T23:25:15.875Z,99.90
2018-08-25T23:27:44.393Z,99.90
2018-08-25T23:30:13.037Z,99.90
2018-08-25T23:32:41.604Z,99.90
2018-08-25T23:35:10.165Z,99.90
2018-08-25T23:37:38.815Z,99.90
2018-08-25T23:40:08.342Z,99.90
2018-08-25T23:42:36.894Z,99.90
2018-08-25T23:45:05.519Z,99.90
2018-08-25T23:47:34.168Z,99.90
2018-08-25T23:50:02.732Z,99.90
2018-08-25T23:52:36.120Z,99.90
2018-08-25T23:55:06.831Z,99.90
2018-08-25T23:57:35.406Z,99.90
